createdAt,value
2019-03-26T00:01:16.276Z,102742.91
2019-03-26T00:04:05.114Z,102742.01
2019-03-26T00:06:35.445Z,102743.73
2019-03-26T00:09:09.157Z,102746.00
2019-03-26T00:11:40.540Z,102739.48
2019-03-26T00:14:15.110Z,102741.59
2019-03-26T00:16:54.271Z,102744.59
2019-03-26T00:19:25.430Z,102746.90
2019-03-26T00:21:56.746Z,102743.73
2019-03-26T00:24:27.995Z,102749.35
2019-03-26T00:26:59.204Z,102745.91
2019-03-26T00:29:31.586Z,102742.39
2019-03-26T00:32:03.938Z,102736.19
2019-03-26T00:34:39.335Z,102741.11
2019-03-26T00:37:10.553Z,102738.91
2019-03-26T00:39:41.804Z,102743.25
2019-03-26T00:42:12.989Z,102744.12
2019-03-26T00:44:48.352Z,102749.10
2019-03-26T00:47:21.656Z,102750.28
2019-03-26T00:49:52.957Z,102753.45
2019-03-26T00:52:24.234Z,102747.94
2019-03-26T00:54:55.471Z,102754.89
2019-03-26T00:57:28.796Z,102755.24
2019-03-26T01:00:08.738Z,102755.69
2019-03-26T01:02:45.093Z,102749.42
2019-03-26T01:05:16.459Z,102755.82
2019-03-26T01:07:49.703Z,102754.38
2019-03-26T01:10:28.194Z,102760.33
2019-03-26T01:12:59.531Z,102759.94
2019-03-26T01:15:30.814Z,102747.03
2019-03-26T01:18:05.694Z,102746.73
2019-03-26T01:20:38.024Z,102749.71
2019-03-26T01:23:12.422Z,102751.41
2019-03-26T01:25:43.564Z,102754.22
2019-03-26T01:28:18.677Z,102759.20
2019-03-26T01:30:55.921Z,102761.55
2019-03-26T01:33:27.121Z,102764.59
2019-03-26T01:35:59.425Z,102766.54
2019-03-26T01:38:34.405Z,102768.09
2019-03-26T01:41:06.725Z,102767.67
2019-03-26T01:43:37.944Z,102766.72
2019-03-26T01:46:09.251Z,102760.74
2019-03-26T01:48:44.793Z,102764.39
2019-03-26T01:51:17.051Z,102760.30
2019-03-26T01:53:54.287Z,102755.11
2019-03-26T01:56:25.567Z,102758.30
2019-03-26T01:59:02.278Z,102757.89
2019-03-26T02:01:35.577Z,102756.64
2019-03-26T02:04:06.821Z,102760.27
2019-03-26T02:06:40.013Z,102758.98
2019-03-26T02:09:11.250Z,102762.59
2019-03-26T02:11:50.489Z,102768.80
2019-03-26T02:14:23.780Z,102770.56
2019-03-26T02:16:55.572Z,102767.83
2019-03-26T02:19:26.775Z,102768.27
2019-03-26T02:22:03.204Z,102777.97
2019-03-26T02:24:34.404Z,102760.00
2019-03-26T02:27:05.572Z,102760.77
2019-03-26T02:29:36.713Z,102764.70
2019-03-26T02:32:07.884Z,102762.50
2019-03-26T02:34:45.306Z,102772.50
2019-03-26T02:37:16.589Z,102761.31
2019-03-26T02:39:53.858Z,102762.84
2019-03-26T02:42:24.977Z,102764.21
2019-03-26T02:44:56.127Z,102757.62
2019-03-26T02:47:27.451Z,102763.94
2019-03-26T02:49:58.617Z,102760.78
2019-03-26T02:52:29.944Z,102754.07
2019-03-26T02:55:14.462Z,102758.30
2019-03-26T02:57:49.254Z,102753.92
2019-03-26T03:00:26.826Z,102757.53
2019-03-26T03:02:58.070Z,102761.26
2019-03-26T03:05:35.670Z,102753.98
2019-03-26T03:08:02.152Z,102749.82
2019-03-26T03:10:36.648Z,102754.77
2019-03-26T03:13:07.819Z,102754.09
2019-03-26T03:15:42.198Z,102760.63
2019-03-26T03:18:24.791Z,102755.22
2019-03-26T03:20:56.080Z,102758.77
2019-03-26T03:23:32.210Z,102762.80
2019-03-26T03:26:03.445Z,102763.20
2019-03-26T03:28:34.643Z,102768.02
2019-03-26T03:31:05.989Z,102765.73
2019-03-26T03:33:41.345Z,102772.91
2019-03-26T03:36:20.460Z,102770.80
2019-03-26T03:38:51.642Z,102771.66
2019-03-26T03:41:23.976Z,102778.44
2019-03-26T03:44:00.283Z,102778.98
2019-03-26T03:46:32.032Z,102778.50
2019-03-26T03:49:03.632Z,102779.89
2019-03-26T03:51:37.074Z,102774.86
2019-03-26T03:54:12.018Z,102774.08
2019-03-26T03:56:43.884Z,102772.19
2019-03-26T03:59:15.234Z,102778.89
2019-03-26T04:01:46.410Z,102778.89
2019-03-26T04:04:17.573Z,102780.58
2019-03-26T04:07:03.903Z,102780.20
2019-03-26T04:09:35.219Z,102782.39
2019-03-26T04:12:10.780Z,102781.39
2019-03-26T04:14:43.892Z,102773.70
2019-03-26T04:17:16.149Z,102771.34
2019-03-26T04:19:47.470Z,102772.20
2019-03-26T04:22:18.718Z,102765.97
2019-03-26T04:24:54.079Z,102766.30
2019-03-26T04:27:25.429Z,102767.20
2019-03-26T04:30:06.946Z,102768.92
2019-03-26T04:32:39.199Z,102766.33
2019-03-26T04:35:10.533Z,102763.14
2019-03-26T04:37:43.721Z,102765.28
2019-03-26T04:40:14.875Z,102771.30
2019-03-26T04:42:47.128Z,102770.69
2019-03-26T04:45:19.524Z,102769.08
2019-03-26T04:47:50.710Z,102781.36
2019-03-26T04:50:21.940Z,102784.05
2019-03-26T04:52:53.216Z,102777.21
2019-03-26T04:55:24.463Z,102770.79
2019-03-26T04:57:55.748Z,102767.55
2019-03-26T05:00:30.649Z,102776.58
2019-03-26T05:03:07.934Z,102770.50
2019-03-26T05:05:39.205Z,102776.13
2019-03-26T05:08:10.499Z,102767.27
2019-03-26T05:10:41.826Z,102773.55
2019-03-26T05:13:15.062Z,102766.63
2019-03-26T05:15:48.665Z,102769.22
2019-03-26T05:18:19.953Z,102769.84
2019-03-26T05:20:52.188Z,102763.70
2019-03-26T05:23:24.394Z,102756.81
2019-03-26T05:25:56.785Z,102753.78
2019-03-26T05:28:28.382Z,102761.34
2019-03-26T05:30:59.656Z,102764.44
2019-03-26T05:33:31.013Z,102764.41
2019-03-26T05:36:02.132Z,102769.47
2019-03-26T05:38:36.772Z,102777.80
2019-03-26T05:41:10.514Z,102776.97
2019-03-26T05:43:41.251Z,102778.67
2019-03-26T05:46:17.121Z,102774.23
2019-03-26T05:48:48.332Z,102780.48
2019-03-26T05:51:19.610Z,102777.44
2019-03-26T05:53:50.919Z,102784.83
2019-03-26T05:56:26.695Z,102783.66
2019-03-26T05:58:57.879Z,102775.63
2019-03-26T06:01:29.153Z,102783.66
2019-03-26T06:04:12.348Z,102782.94
2019-03-26T06:06:43.696Z,102782.13
2019-03-26T06:09:27.749Z,102783.89
2019-03-26T06:12:08.095Z,102783.42
2019-03-26T06:14:40.381Z,102786.63
2019-03-26T06:17:30.695Z,102788.78
2019-03-26T06:20:12.922Z,102790.64
2019-03-26T06:22:45.228Z,102785.60
2019-03-26T06:25:16.521Z,102800.22
2019-03-26T06:27:48.760Z,102798.83
2019-03-26T06:30:19.992Z,102810.86
2019-03-26T06:32:51.260Z,102804.20
2019-03-26T06:35:22.568Z,102819.75
2019-03-26T06:37:56.936Z,102811.64
2019-03-26T06:40:29.104Z,102808.98
2019-03-26T06:43:00.479Z,102809.80
2019-03-26T06:45:33.654Z,102811.61
2019-03-26T06:48:05.733Z,102818.83
2019-03-26T06:50:37.044Z,102815.67
2019-03-26T06:53:22.844Z,102824.98
2019-03-26T06:55:58.416Z,102821.94
2019-03-26T06:58:29.721Z,102820.20
2019-03-26T07:01:01.092Z,102826.46
2019-03-26T07:03:33.282Z,102832.80
2019-03-26T07:06:04.608Z,102830.09
2019-03-26T07:08:36.896Z,102829.09
2019-03-26T07:11:19.163Z,102836.67
2019-03-26T07:13:52.394Z,102831.78
2019-03-26T07:16:24.556Z,102837.09
2019-03-26T07:19:05.809Z,102834.66
2019-03-26T07:21:49.197Z,102844.59
2019-03-26T07:24:10.978Z,102844.09
2019-03-26T07:26:45.829Z,102842.00
2019-03-26T07:29:18.987Z,102853.55
2019-03-26T07:31:50.156Z,102858.83
2019-03-26T07:34:26.301Z,102855.70
2019-03-26T07:37:16.829Z,102862.41
2019-03-26T07:39:48.083Z,102858.25
2019-03-26T07:42:19.381Z,102855.46
2019-03-26T07:44:50.874Z,102859.46
2019-03-26T07:47:22.738Z,102858.83
2019-03-26T07:49:54.972Z,102861.58
2019-03-26T07:52:26.193Z,102854.89
2019-03-26T07:54:59.776Z,102857.88
2019-03-26T07:57:30.854Z,102849.81
2019-03-26T08:00:02.136Z,102852.14
2019-03-26T08:02:41.588Z,102852.12
2019-03-26T08:05:12.845Z,102858.71
2019-03-26T08:07:57.523Z,102857.06
2019-03-26T08:10:19.064Z,102849.70
2019-03-26T08:12:50.452Z,102857.41
2019-03-26T08:15:21.773Z,102861.52
2019-03-26T08:17:52.896Z,102866.38
2019-03-26T08:20:24.131Z,102871.55
2019-03-26T08:22:55.414Z,102863.19
2019-03-26T08:25:26.698Z,102861.81
2019-03-26T08:27:58.036Z,102853.13
2019-03-26T08:30:29.258Z,102857.48
2019-03-26T08:33:00.645Z,102861.27
2019-03-26T08:35:31.944Z,102851.34
2019-03-26T08:38:12.989Z,102850.00
2019-03-26T08:40:41.999Z,102848.41
2019-03-26T08:43:21.271Z,102852.57
2019-03-26T08:46:03.899Z,102852.20
2019-03-26T08:48:35.103Z,102852.72
2019-03-26T08:51:06.279Z,102856.87
2019-03-26T08:53:37.476Z,102857.72
2019-03-26T08:56:08.769Z,102863.55
2019-03-26T08:58:40.029Z,102860.64
2019-03-26T09:01:12.508Z,102856.57
2019-03-26T09:03:43.667Z,102849.73
2019-03-26T09:06:14.983Z,102854.07
2019-03-26T09:08:52.287Z,102853.47
2019-03-26T09:11:23.809Z,102851.19
2019-03-26T09:14:00.520Z,102846.16
2019-03-26T09:16:31.746Z,102851.92
2019-03-26T09:19:03.585Z,102849.22
2019-03-26T09:21:34.854Z,102851.38
2019-03-26T09:24:06.320Z,102864.59
2019-03-26T09:26:37.544Z,102860.31
2019-03-26T09:29:19.098Z,102872.16
2019-03-26T09:31:50.433Z,102871.52
2019-03-26T09:34:21.520Z,102876.33
2019-03-26T09:36:53.674Z,102885.42
2019-03-26T09:39:26.933Z,102883.87
2019-03-26T09:42:09.422Z,102882.34
2019-03-26T09:44:40.634Z,102882.22
2019-03-26T09:47:24.463Z,102886.19
2019-03-26T09:49:56.764Z,102878.50
2019-03-26T09:52:30.012Z,102885.16
2019-03-26T09:55:01.238Z,102895.33
2019-03-26T09:57:45.506Z,102893.45
2019-03-26T10:00:16.904Z,102904.80
2019-03-26T10:02:54.273Z,102902.87
2019-03-26T10:05:30.582Z,102900.29
2019-03-26T10:08:01.813Z,102896.34
2019-03-26T10:10:33.105Z,102890.97
2019-03-26T10:13:04.383Z,102888.73
2019-03-26T10:15:39.036Z,102886.55
2019-03-26T10:18:10.302Z,102882.30
2019-03-26T10:20:41.504Z,102881.28
2019-03-26T10:23:24.930Z,102873.94
2019-03-26T10:26:00.206Z,102868.02
2019-03-26T10:28:32.013Z,102868.33
2019-03-26T10:31:03.351Z,102866.27
2019-03-26T10:33:34.606Z,102867.07
2019-03-26T10:36:15.947Z,102867.13
2019-03-26T10:38:47.109Z,102860.14
2019-03-26T10:41:18.821Z,102862.19
2019-03-26T10:43:50.002Z,102863.42
2019-03-26T10:46:21.280Z,102858.42
2019-03-26T10:48:52.365Z,102853.25
2019-03-26T10:51:23.497Z,102854.16
2019-03-26T10:53:58.701Z,102851.09
2019-03-26T10:56:32.544Z,102853.20
2019-03-26T10:59:09.867Z,102852.09
2019-03-26T11:01:41.059Z,102859.39
2019-03-26T11:04:13.371Z,102865.92
2019-03-26T11:06:44.565Z,102860.86
2019-03-26T11:09:24.161Z,102852.21
2019-03-26T11:11:48.607Z,102848.42
2019-03-26T11:14:19.722Z,102845.86
2019-03-26T11:16:50.837Z,102845.80
2019-03-26T11:19:46.586Z,102841.97
2019-03-26T11:22:17.857Z,102839.81
2019-03-26T11:24:58.990Z,102833.80
2019-03-26T11:27:37.081Z,102838.27
2019-03-26T11:30:08.688Z,102835.38
2019-03-26T11:32:39.987Z,102825.75
2019-03-26T11:35:11.430Z,102826.28
2019-03-26T11:37:42.738Z,102824.23
2019-03-26T11:40:19.274Z,102818.27
2019-03-26T11:42:50.473Z,102818.30
2019-03-26T11:45:21.647Z,102818.10
2019-03-26T11:47:52.850Z,102823.14
2019-03-26T11:50:31.950Z,102829.04
2019-03-26T11:53:05.253Z,102827.59
2019-03-26T11:55:36.485Z,102826.78
2019-03-26T11:58:14.239Z,102827.55
2019-03-26T12:00:45.455Z,102817.91
2019-03-26T12:03:19.698Z,102823.89
2019-03-26T12:05:52.016Z,102811.62
2019-03-26T12:08:23.174Z,102804.53
2019-03-26T12:10:54.385Z,102810.80
2019-03-26T12:13:25.576Z,102804.78
2019-03-26T12:15:57.729Z,102809.81
2019-03-26T12:18:28.977Z,102811.02
2019-03-26T12:21:04.080Z,102809.32
2019-03-26T12:23:35.345Z,102814.08
2019-03-26T12:26:06.519Z,102819.34
2019-03-26T12:28:51.373Z,102819.34
2019-03-26T12:31:22.546Z,102817.94
2019-03-26T12:33:59.843Z,102812.64
2019-03-26T12:36:39.797Z,102813.81
2019-03-26T12:39:06.598Z,102818.08
2019-03-26T12:41:38.660Z,102812.47
2019-03-26T12:44:10.965Z,102816.78
2019-03-26T12:46:46.903Z,102819.73
2019-03-26T12:49:27.071Z,102828.14
2019-03-26T12:51:59.239Z,102826.44
2019-03-26T12:54:30.469Z,102822.11
2019-03-26T12:57:01.620Z,102817.17
2019-03-26T12:59:33.736Z,102815.05
2019-03-26T13:02:04.912Z,102805.55
2019-03-26T13:04:36.135Z,102815.70
2019-03-26T13:07:07.351Z,102810.59
2019-03-26T13:09:41.774Z,102811.89
2019-03-26T13:12:11.906Z,102803.98
2019-03-26T13:14:43.029Z,102801.30
2019-03-26T13:17:14.181Z,102795.55
2019-03-26T13:19:45.440Z,102803.99
2019-03-26T13:22:16.666Z,102798.48
2019-03-26T13:24:47.856Z,102794.88
2019-03-26T13:27:19.114Z,102797.39
2019-03-26T13:29:50.607Z,102798.92
2019-03-26T13:32:21.726Z,102792.55
2019-03-26T13:34:53.886Z,102793.52
2019-03-26T13:37:25.022Z,102790.75
2019-03-26T13:40:27.444Z,102791.45
2019-03-26T13:42:56.959Z,102795.75
2019-03-26T13:45:28.066Z,102784.83
2019-03-26T13:47:59.298Z,102786.13
2019-03-26T13:50:30.433Z,102782.28
2019-03-26T13:53:01.686Z,102782.28
2019-03-26T13:55:32.925Z,102791.41
2019-03-26T13:58:08.199Z,102784.97
2019-03-26T14:00:52.495Z,102789.37
2019-03-26T14:03:23.673Z,102791.55
2019-03-26T14:05:56.144Z,102789.56
2019-03-26T14:08:27.379Z,102783.03
2019-03-26T14:10:58.763Z,102780.72
2019-03-26T14:13:30.015Z,102789.16
2019-03-26T14:16:01.205Z,102782.39
2019-03-26T14:18:33.795Z,102786.92
2019-03-26T14:21:04.943Z,102783.73
2019-03-26T14:23:36.115Z,102783.82
2019-03-26T14:26:07.485Z,102782.33
2019-03-26T14:28:38.772Z,102779.93
2019-03-26T14:31:17.126Z,102776.21
2019-03-26T14:33:52.070Z,102773.92
2019-03-26T14:36:40.908Z,102774.06
2019-03-26T14:39:12.042Z,102785.59
2019-03-26T14:41:43.176Z,102778.81
2019-03-26T14:44:14.592Z,102776.30
2019-03-26T14:46:55.315Z,102776.21
2019-03-26T14:49:29.677Z,102782.12
2019-03-26T14:52:00.933Z,102780.41
2019-03-26T14:54:35.538Z,102784.02
2019-03-26T14:57:10.266Z,102780.41
2019-03-26T14:59:42.487Z,102777.39
2019-03-26T15:02:17.530Z,102770.25
2019-03-26T15:04:56.353Z,102775.94
2019-03-26T15:07:28.274Z,102775.23
2019-03-26T15:10:00.592Z,102767.66
2019-03-26T15:12:31.847Z,102770.10
2019-03-26T15:15:05.613Z,102768.86
2019-03-26T15:17:59.622Z,102765.71
2019-03-26T15:20:37.161Z,102767.20
2019-03-26T15:23:12.439Z,102764.72
2019-03-26T15:25:43.802Z,102763.88
2019-03-26T15:28:16.138Z,102763.27
2019-03-26T15:30:47.542Z,102762.62
2019-03-26T15:33:28.897Z,102765.72
2019-03-26T15:36:00.143Z,102757.13
2019-03-26T15:38:32.578Z,102756.58
2019-03-26T15:41:03.864Z,102763.46
2019-03-26T15:43:36.084Z,102759.81
2019-03-26T15:46:07.335Z,102764.05
2019-03-26T15:48:38.606Z,102760.41
2019-03-26T15:51:09.942Z,102760.47
2019-03-26T15:53:43.546Z,102757.05
2019-03-26T15:56:14.868Z,102761.70
2019-03-26T15:58:48.094Z,102760.05
2019-03-26T16:01:19.503Z,102760.88
2019-03-26T16:03:52.769Z,102753.10
2019-03-26T16:06:27.126Z,102755.33
2019-03-26T16:08:58.384Z,102757.89
2019-03-26T16:11:35.828Z,102749.60
2019-03-26T16:14:06.304Z,102751.00
2019-03-26T16:16:37.608Z,102746.16
2019-03-26T16:19:08.911Z,102747.59
2019-03-26T16:21:40.153Z,102748.36
2019-03-26T16:24:11.310Z,102746.77
2019-03-26T16:26:42.492Z,102749.75
2019-03-26T16:29:15.702Z,102749.64
2019-03-26T16:31:46.941Z,102746.25
2019-03-26T16:34:18.140Z,102753.33
2019-03-26T16:36:59.289Z,102745.97
2019-03-26T16:39:24.233Z,102759.96
2019-03-26T16:41:55.366Z,102762.36
2019-03-26T16:44:26.517Z,102767.20
2019-03-26T16:46:57.692Z,102773.39
2019-03-26T16:49:28.867Z,102770.23
2019-03-26T16:51:59.998Z,102773.28
2019-03-26T16:54:32.313Z,102778.44
2019-03-26T16:57:03.540Z,102779.16
2019-03-26T16:59:34.795Z,102775.17
2019-03-26T17:02:06.134Z,102763.78
2019-03-26T17:04:37.392Z,102769.16
2019-03-26T17:07:08.673Z,102771.45
2019-03-26T17:10:06.958Z,102766.05
2019-03-26T17:12:38.285Z,102770.16
2019-03-26T17:15:11.734Z,102767.55
2019-03-26T17:17:43.041Z,102765.56
2019-03-26T17:20:14.183Z,102762.37
2019-03-26T17:22:45.476Z,102764.36
2019-03-26T17:25:16.854Z,102763.17
2019-03-26T17:27:48.270Z,102767.91
2019-03-26T17:30:19.467Z,102764.36
2019-03-26T17:32:50.679Z,102770.02
2019-03-26T17:35:21.917Z,102764.38
2019-03-26T17:37:59.589Z,102763.37
2019-03-26T17:40:25.964Z,102769.91
2019-03-26T17:43:02.214Z,102768.66
2019-03-26T17:45:33.496Z,102764.56
2019-03-26T17:48:04.667Z,102766.55
2019-03-26T17:50:42.728Z,102763.31
2019-03-26T17:53:13.901Z,102766.72
2019-03-26T17:55:45.191Z,102768.35
2019-03-26T17:58:18.391Z,102766.72
2019-03-26T18:00:57.750Z,102767.95
2019-03-26T18:03:28.858Z,102766.31
2019-03-26T18:06:00.155Z,102766.95
2019-03-26T18:08:31.402Z,102772.56
2019-03-26T18:11:02.624Z,102770.30
2019-03-26T18:13:33.839Z,102772.45
2019-03-26T18:16:19.272Z,102769.31
2019-03-26T18:18:50.442Z,102775.87
2019-03-26T18:21:22.591Z,102780.54
2019-03-26T18:23:53.847Z,102781.93
2019-03-26T18:26:26.002Z,102785.08
2019-03-26T18:28:57.552Z,102785.87
2019-03-26T18:31:28.961Z,102790.36
2019-03-26T18:33:59.976Z,102789.41
2019-03-26T18:36:34.278Z,102789.72
2019-03-26T18:39:07.742Z,102782.57
2019-03-26T18:41:39.016Z,102790.11
2019-03-26T18:44:21.126Z,102790.61
2019-03-26T18:46:58.271Z,102795.09
2019-03-26T18:49:29.519Z,102794.25
2019-03-26T18:52:00.715Z,102799.19
2019-03-26T18:54:35.590Z,102803.67
2019-03-26T18:57:24.000Z,102798.05
2019-03-26T18:59:55.497Z,102804.94
2019-03-26T19:02:26.828Z,102807.43
2019-03-26T19:04:58.480Z,102803.67
2019-03-26T19:07:29.928Z,102802.23
2019-03-26T19:10:01.232Z,102804.30
2019-03-26T19:12:38.633Z,102805.48
2019-03-26T19:15:22.644Z,102810.17
2019-03-26T19:17:54.108Z,102808.73
2019-03-26T19:20:25.435Z,102809.42
2019-03-26T19:22:56.718Z,102813.41
2019-03-26T19:25:38.752Z,102814.31
2019-03-26T19:28:17.685Z,102811.67
2019-03-26T19:30:49.079Z,102811.27
2019-03-26T19:33:20.249Z,102819.71
2019-03-26T19:35:52.440Z,102818.05
2019-03-26T19:38:23.829Z,102819.71
2019-03-26T19:40:57.118Z,102817.45
2019-03-26T19:43:39.694Z,102820.75
2019-03-26T19:46:11.050Z,102832.80
2019-03-26T19:48:42.306Z,102834.77
2019-03-26T19:51:15.783Z,102836.63
2019-03-26T19:54:07.707Z,102844.61
2019-03-26T19:56:39.369Z,102851.20
2019-03-26T19:59:10.741Z,102856.10
2019-03-26T20:01:53.541Z,102850.08
2019-03-26T20:04:24.980Z,102857.27
2019-03-26T20:06:57.376Z,102856.05
2019-03-26T20:09:28.831Z,102857.72
2019-03-26T20:12:00.256Z,102854.58
2019-03-26T20:14:32.622Z,102858.47
2019-03-26T20:17:14.012Z,102857.61
2019-03-26T20:19:47.342Z,102860.30
2019-03-26T20:22:18.758Z,102865.69
2019-03-26T20:25:01.583Z,102871.80
2019-03-26T20:27:33.028Z,102858.34
2019-03-26T20:30:04.786Z,102861.08
2019-03-26T20:32:36.903Z,102856.03
2019-03-26T20:35:08.484Z,102856.31
2019-03-26T20:37:39.852Z,102859.55
2019-03-26T20:40:12.086Z,102859.92
2019-03-26T20:42:43.424Z,102861.27
2019-03-26T20:45:14.886Z,102866.33
2019-03-26T20:47:46.525Z,102866.81
2019-03-26T20:50:18.751Z,102864.98
2019-03-26T20:52:50.072Z,102867.59
2019-03-26T20:55:30.539Z,102862.28
2019-03-26T20:58:02.012Z,102864.13
2019-03-26T21:00:37.812Z,102861.97
2019-03-26T21:03:09.135Z,102862.25
2019-03-26T21:05:41.565Z,102861.80
2019-03-26T21:08:13.492Z,102865.43
2019-03-26T21:10:47.829Z,102866.05
2019-03-26T21:13:50.663Z,102877.19
2019-03-26T21:16:19.132Z,102870.95
2019-03-26T21:18:50.368Z,102873.47
2019-03-26T21:21:22.595Z,102875.84
2019-03-26T21:23:53.924Z,102881.64
2019-03-26T21:26:25.132Z,102879.34
2019-03-26T21:28:56.540Z,102879.39
2019-03-26T21:31:27.776Z,102877.23
2019-03-26T21:33:59.209Z,102882.34
2019-03-26T21:36:30.478Z,102876.19
2019-03-26T21:39:02.106Z,102878.47
2019-03-26T21:41:34.869Z,102876.99
2019-03-26T21:44:11.154Z,102880.14
2019-03-26T21:46:42.399Z,102878.80
2019-03-26T21:49:17.685Z,102879.52
2019-03-26T21:51:48.958Z,102874.86
2019-03-26T21:54:20.268Z,102880.41
2019-03-26T21:56:52.473Z,102880.38
2019-03-26T21:59:23.824Z,102883.06
2019-03-26T22:01:56.185Z,102887.27
2019-03-26T22:04:37.519Z,102895.63
2019-03-26T22:07:08.913Z,102889.84
2019-03-26T22:09:44.521Z,102883.56
2019-03-26T22:12:20.847Z,102885.23
2019-03-26T22:14:52.560Z,102885.88
2019-03-26T22:17:43.898Z,102889.88
2019-03-26T22:20:15.860Z,102879.03
2019-03-26T22:22:47.797Z,102884.41
2019-03-26T22:25:19.182Z,102891.19
2019-03-26T22:27:51.962Z,102884.63
2019-03-26T22:30:31.271Z,102879.81
2019-03-26T22:33:02.509Z,102878.34
2019-03-26T22:35:33.887Z,102876.50
2019-03-26T22:38:05.090Z,102881.85
2019-03-26T22:40:36.319Z,102877.81
2019-03-26T22:43:17.605Z,102882.83
2019-03-26T22:46:04.461Z,102885.64
2019-03-26T22:48:35.622Z,102883.44
2019-03-26T22:51:07.937Z,102885.80
2019-03-26T22:53:44.153Z,102882.17
2019-03-26T22:56:16.251Z,102883.69
2019-03-26T22:58:50.859Z,102879.72
2019-03-26T23:01:41.073Z,102875.23
2019-03-26T23:04:12.364Z,102878.75
2019-03-26T23:06:47.963Z,102873.61
2019-03-26T23:09:19.099Z,102876.21
2019-03-26T23:11:52.741Z,102872.27
2019-03-26T23:14:24.731Z,102879.84
2019-03-26T23:16:56.061Z,102877.11
2019-03-26T23:19:27.405Z,102883.80
2019-03-26T23:21:59.681Z,102885.03
2019-03-26T23:24:30.882Z,102879.84
2019-03-26T23:27:03.218Z,102882.69
2019-03-26T23:29:34.270Z,102881.20
2019-03-26T23:32:11.391Z,102892.59
2019-03-26T23:34:45.981Z,102887.55
2019-03-26T23:37:49.218Z,102885.78
2019-03-26T23:40:20.439Z,102885.30
2019-03-26T23:42:58.166Z,102887.95
2019-03-26T23:45:29.393Z,102889.75
2019-03-26T23:48:00.525Z,102886.27
2019-03-26T23:50:31.793Z,102882.69
2019-03-26T23:53:02.910Z,102880.94
2019-03-26T23:55:34.064Z,102885.49
2019-03-26T23:58:05.286Z,102885.56
